Time;durP1;ratioP1;P1;durP2;ratioP2;P2;SDS_P1;SDS_P2;PMS_P1;PMS_P2;Temp;Humidity;BMP_temperature;BMP_pressure;BME280_temperature;BME280_humidity;BME280_pressure;Samples;Min_cycle;Max_cycle;Signal;HPM_P1;HPM_P2
2021/11/24 00:00:27;;;;;;;61.60;20.48;;;10.00;99.90;;;;;;4977331;28;20166;-81
2021/11/24 00:02:53;;;;;;;60.38;19.08;;;10.00;99.90;;;;;;4977293;28;20166;-87
2021/11/24 00:05:19;;;;;;;54.72;18.52;;;10.20;99.90;;;;;;4976828;28;20200;-84
2021/11/24 00:07:45;;;;;;;79.13;21.73;;;10.20;99.90;;;;;;4977186;28;20298;-84
2021/11/24 00:10:13;;;;;;;68.00;21.27;;;10.10;99.90;;;;;;4977389;28;20173;-81
2021/11/24 00:12:38;;;;;;;75.07;21.58;;;10.30;99.90;;;;;;4975959;28;20197;-83
2021/11/24 00:15:06;;;;;;;79.30;23.33;;;10.10;99.90;;;;;;4976819;28;20220;-79
2021/11/24 00:17:32;;;;;;;76.32;22.13;;;10.00;99.90;;;;;;4977047;28;20569;-83
2021/11/24 00:19:58;;;;;;;86.07;23.77;;;9.80;99.90;;;;;;4976931;28;20524;-83
2021/11/24 00:22:23;;;;;;;77.47;23.70;;;10.00;99.90;;;;;;4976411;28;20212;-84
2021/11/24 00:24:49;;;;;;;81.80;22.98;;;9.90;99.90;;;;;;4976953;28;20174;-82
2021/11/24 00:27:14;;;;;;;77.63;23.02;;;9.90;99.90;;;;;;4977070;28;20201;-84
2021/11/24 00:29:40;;;;;;;92.38;21.65;;;9.80;99.90;;;;;;4976954;28;20173;-82
2021/11/24 00:32:06;;;;;;;74.90;23.45;;;10.00;99.90;;;;;;4976818;28;20201;-80
2021/11/24 00:34:33;;;;;;;89.70;24.10;;;10.00;99.90;;;;;;4976695;28;20185;-83
2021/11/24 00:36:59;;;;;;;84.40;24.20;;;10.00;99.90;;;;;;4976590;28;20194;-79
2021/11/24 00:39:24;;;;;;;82.97;22.45;;;10.00;99.90;;;;;;4976569;28;20162;-78
2021/11/24 00:41:50;;;;;;;80.57;23.60;;;9.70;99.90;;;;;;4976574;28;20170;-88
2021/11/24 00:44:16;;;;;;;95.53;24.02;;;9.70;99.90;;;;;;4976602;28;20586;-81
2021/11/24 00:46:41;;;;;;;93.38;23.35;;;9.80;99.90;;;;;;4976157;28;20205;-80
2021/11/24 00:49:08;;;;;;;90.53;26.42;;;9.60;99.90;;;;;;4976017;28;20170;-83
2021/11/24 00:51:34;;;;;;;90.72;25.38;;;9.50;99.90;;;;;;4975765;28;20176;-84
2021/11/24 00:53:59;;;;;;;110.05;25.15;;;9.70;99.90;;;;;;4976322;28;20523;-78
2021/11/24 00:56:25;;;;;;;112.43;27.58;;;10.00;99.90;;;;;;4959386;28;20256;-78
2021/11/24 00:58:51;;;;;;;84.63;27.10;;;10.00;99.90;;;;;;4976545;28;20169;-81
2021/11/24 01:01:16;;;;;;;101.35;26.48;;;10.10;99.90;;;;;;4976661;28;20232;-84
2021/11/24 01:03:42;;;;;;;99.68;27.48;;;9.80;99.90;;;;;;4976140;28;20530;-82
2021/11/24 01:06:07;;;;;;;87.13;24.55;;;9.80;99.90;;;;;;4958761;28;20194;-82
2021/11/24 01:08:33;;;;;;;110.40;25.73;;;9.90;99.90;;;;;;4976052;28;20604;-79
2021/11/24 01:10:59;;;;;;;103.40;26.08;;;9.80;99.90;;;;;;4976035;28;20170;-83
2021/11/24 01:13:25;;;;;;;106.55;27.80;;;9.60;99.90;;;;;;4976376;28;20192;-85
2021/11/24 01:15:51;;;;;;;88.85;25.15;;;9.80;99.90;;;;;;4975838;28;20190;-80
2021/11/24 01:18:18;;;;;;;100.72;26.10;;;9.90;99.90;;;;;;4958606;28;20182;-81
2021/11/24 01:20:46;;;;;;;98.20;25.90;;;10.20;99.90;;;;;;4975888;28;20166;-80
2021/11/24 01:23:13;;;;;;;92.88;25.48;;;10.20;99.90;;;;;;4975735;28;20185;-78
2021/11/24 01:25:39;;;;;;;100.22;26.92;;;10.10;99.90;;;;;;4975585;28;20276;-79
2021/11/24 01:28:05;;;;;;;104.13;25.75;;;10.00;99.90;;;;;;4976031;28;20209;-81
2021/11/24 01:30:31;;;;;;;89.22;25.35;;;10.00;99.90;;;;;;4958675;28;20622;-81
2021/11/24 01:32:56;;;;;;;87.68;23.83;;;10.10;99.90;;;;;;4958393;28;20177;-78
2021/11/24 01:35:22;;;;;;;96.72;25.92;;;9.90;99.90;;;;;;4975532;28;20542;-83
2021/11/24 01:37:48;;;;;;;108.88;24.80;;;9.90;99.90;;;;;;4975456;28;20189;-84
2021/11/24 01:40:14;;;;;;;109.65;25.23;;;10.20;99.90;;;;;;4975319;28;20169;-85
2021/11/24 01:42:40;;;;;;;84.72;24.67;;;10.00;99.90;;;;;;4958528;28;20170;-81
2021/11/24 01:45:09;;;;;;;90.40;24.52;;;10.00;99.90;;;;;;4975277;28;20272;-80
2021/11/24 01:47:35;;;;;;;98.85;26.58;;;10.00;99.90;;;;;;4975635;28;20205;-89
2021/11/24 01:50:02;;;;;;;80.85;23.33;;;10.00;99.90;;;;;;4975003;28;20177;-83
2021/11/24 01:52:30;;;;;;;81.35;25.52;;;10.00;99.90;;;;;;4975242;28;20166;-83
2021/11/24 01:54:56;;;;;;;94.20;24.77;;;9.90;99.90;;;;;;4975364;28;20166;-83
2021/11/24 01:57:24;;;;;;;94.78;24.55;;;9.70;99.90;;;;;;4975378;28;20170;-84
2021/11/24 01:59:50;;;;;;;74.15;24.33;;;9.60;99.90;;;;;;4975337;28;20205;-80
2021/11/24 02:02:18;;;;;;;97.15;23.60;;;9.60;99.90;;;;;;4975051;28;20166;-84
2021/11/24 02:04:44;;;;;;;105.25;25.98;;;9.90;99.90;;;;;;4975037;28;20173;-83
2021/11/24 02:07:09;;;;;;;92.65;25.55;;;9.70;99.90;;;;;;4975141;28;20208;-80
2021/11/24 02:09:36;;;;;;;90.82;24.20;;;9.70;99.90;;;;;;4957575;28;20186;-82
2021/11/24 02:12:02;;;;;;;69.88;24.27;;;10.10;99.90;;;;;;4957813;28;20281;-85
2021/11/24 02:14:28;;;;;;;100.90;27.27;;;10.30;99.90;;;;;;4974759;28;20656;-82
2021/11/24 02:16:55;;;;;;;92.97;26.17;;;10.30;99.90;;;;;;4974778;28;20202;-79
2021/11/24 02:19:27;;;;;;;94.28;26.73;;;10.40;99.90;;;;;;4974862;28;20166;-84
2021/11/24 02:21:53;;;;;;;77.05;24.00;;;10.50;99.90;;;;;;4957600;28;20653;-81
2021/11/24 02:24:23;;;;;;;97.10;25.70;;;10.50;99.90;;;;;;4974892;28;20208;-79
2021/11/24 02:26:49;;;;;;;85.38;24.20;;;10.30;99.90;;;;;;4974538;28;20192;-82
2021/11/24 02:29:15;;;;;;;89.47;24.38;;;10.00;99.90;;;;;;4957487;28;20174;-79
2021/11/24 02:31:46;;;;;;;85.93;25.73;;;10.10;99.90;;;;;;4974785;28;20177;-79
2021/11/24 02:34:12;;;;;;;99.03;25.27;;;10.10;99.90;;;;;;4974706;28;20181;-82
2021/11/24 02:36:37;;;;;;;94.30;26.77;;;10.20;99.90;;;;;;4974257;28;20190;-83
2021/11/24 02:39:04;;;;;;;93.95;28.13;;;10.40;99.90;;;;;;4974677;28;20532;-79
2021/11/24 02:41:29;;;;;;;93.55;29.33;;;10.50;99.90;;;;;;4974634;28;20256;-83
2021/11/24 02:43:56;;;;;;;96.00;28.58;;;10.20;99.90;;;;;;4974336;28;20586;-85
2021/11/24 02:46:26;;;;;;;91.28;28.63;;;10.30;99.90;;;;;;4956938;28;20193;-84
2021/11/24 02:48:52;;;;;;;95.82;29.95;;;10.30;99.90;;;;;;4974345;28;20213;-80
2021/11/24 02:51:18;;;;;;;87.63;28.13;;;10.40;99.90;;;;;;4974146;28;20528;-81
2021/11/24 02:53:44;;;;;;;89.70;30.02;;;10.40;99.90;;;;;;4974412;28;20295;-78
2021/11/24 02:56:09;;;;;;;89.20;30.10;;;10.30;99.90;;;;;;4957180;28;20675;-84
2021/11/24 02:58:35;;;;;;;99.28;29.92;;;10.30;99.90;;;;;;4974280;28;20174;-80
2021/11/24 03:01:03;;;;;;;100.03;29.25;;;10.20;99.90;;;;;;4974405;28;20177;-82
2021/11/24 03:03:29;;;;;;;99.30;31.10;;;10.30;99.90;;;;;;4974421;28;20174;-81
2021/11/24 03:05:55;;;;;;;100.55;30.08;;;10.50;99.90;;;;;;4974067;28;20204;-84
2021/11/24 03:08:20;;;;;;;90.93;28.98;;;10.30;99.90;;;;;;4974308;28;20288;-82
2021/11/24 03:10:46;;;;;;;112.05;31.30;;;10.30;99.90;;;;;;4974218;28;20221;-84
2021/11/24 03:13:12;;;;;;;98.28;30.10;;;10.40;99.90;;;;;;4975489;28;20182;-79
2021/11/24 03:15:37;;;;;;;87.82;28.83;;;10.30;99.90;;;;;;4978175;28;20660;-82
2021/11/24 03:18:03;;;;;;;96.28;31.40;;;10.40;99.90;;;;;;4978217;28;20317;-83
2021/11/24 03:20:29;;;;;;;95.28;30.48;;;10.30;99.90;;;;;;4960849;28;20205;-85
2021/11/24 03:22:56;;;;;;;85.07;29.23;;;10.50;99.90;;;;;;4978813;28;20595;-82
2021/11/24 03:25:22;;;;;;;91.20;29.85;;;10.50;99.90;;;;;;4960862;28;20189;-82
2021/11/24 03:27:48;;;;;;;79.88;28.48;;;10.50;99.90;;;;;;4978013;28;20292;-87
2021/11/24 03:30:16;;;;;;;92.53;29.77;;;10.40;99.90;;;;;;4977927;28;20210;-84
2021/11/24 03:32:43;;;;;;;81.90;29.50;;;10.30;99.90;;;;;;4978010;28;20197;-83
2021/11/24 03:35:09;;;;;;;78.45;27.65;;;10.20;99.90;;;;;;4977396;28;20283;-82
2021/11/24 03:37:35;;;;;;;81.32;28.05;;;10.30;99.90;;;;;;4977752;28;20174;-86
2021/11/24 03:40:03;;;;;;;78.45;28.17;;;10.30;99.90;;;;;;4960504;28;20177;-83
2021/11/24 03:42:28;;;;;;;73.80;29.55;;;10.30;99.90;;;;;;4977241;28;20570;-87
2021/11/24 03:44:54;;;;;;;67.68;27.13;;;10.30;99.90;;;;;;4960096;28;20178;-82
2021/11/24 03:47:20;;;;;;;85.35;27.67;;;10.20;99.90;;;;;;4977782;28;20252;-83
2021/11/24 03:49:45;;;;;;;72.80;28.58;;;10.40;99.90;;;;;;4977461;28;20178;-84
2021/11/24 03:52:11;;;;;;;60.25;28.60;;;10.30;99.90;;;;;;4977282;28;20166;-86
2021/11/24 03:54:37;;;;;;;71.13;26.98;;;10.20;99.90;;;;;;4977332;28;20261;-83
2021/11/24 03:57:03;;;;;;;59.85;24.77;;;10.30;99.90;;;;;;4960109;28;20224;-83
2021/11/24 03:59:28;;;;;;;67.68;27.42;;;10.30;99.90;;;;;;4977520;28;20264;-84
2021/11/24 04:01:54;;;;;;;79.72;27.17;;;10.30;99.90;;;;;;4977445;28;20253;-82
2021/11/24 04:04:20;;;;;;;58.92;26.35;;;10.40;99.90;;;;;;4977494;28;20174;-82
2021/11/24 04:06:46;;;;;;;56.88;25.77;;;10.40;99.90;;;;;;4977190;28;20190;-79
2021/11/24 04:09:12;;;;;;;53.72;26.58;;;10.40;99.90;;;;;;4977204;28;20182;-81
2021/11/24 04:11:37;;;;;;;57.25;24.70;;;10.40;99.90;;;;;;4976964;28;20173;-84
2021/11/24 04:14:03;;;;;;;55.10;24.42;;;10.30;99.90;;;;;;4977229;28;20173;-79
2021/11/24 04:16:29;;;;;;;69.75;27.13;;;10.30;99.90;;;;;;4977034;28;20190;-84
2021/11/24 04:18:55;;;;;;;56.13;26.23;;;10.20;99.90;;;;;;4959805;28;20266;-80
2021/11/24 04:21:21;;;;;;;66.50;25.85;;;10.20;99.90;;;;;;4976808;28;20236;-82
2021/11/24 04:23:47;;;;;;;66.93;28.27;;;10.30;99.90;;;;;;4959092;28;20235;-78
2021/11/24 04:26:13;;;;;;;64.05;26.27;;;10.30;99.90;;;;;;4976712;28;20236;-85
2021/11/24 04:28:39;;;;;;;71.38;28.02;;;10.00;99.90;;;;;;4976570;28;20574;-84
2021/11/24 04:31:07;;;;;;;62.83;25.45;;;10.00;99.90;;;;;;4977047;28;20236;-88
2021/11/24 04:33:33;;;;;;;63.28;25.50;;;9.70;99.90;;;;;;4976666;28;20644;-82
2021/11/24 04:35:59;;;;;;;67.97;27.85;;;9.90;99.90;;;;;;4976444;28;20186;-78
2021/11/24 04:38:25;;;;;;;69.68;27.83;;;10.10;99.90;;;;;;4976646;28;20628;-83
2021/11/24 04:40:50;;;;;;;67.18;29.17;;;10.30;99.90;;;;;;4976249;28;20173;-77
2021/11/24 04:43:18;;;;;;;80.68;32.78;;;10.00;99.90;;;;;;4976675;28;20184;-80
2021/11/24 04:45:44;;;;;;;86.53;32.92;;;9.80;99.90;;;;;;4976511;28;20532;-78
2021/11/24 04:48:10;;;;;;;97.90;35.90;;;9.70;99.90;;;;;;4959396;28;20559;-82
2021/11/24 04:50:35;;;;;;;101.18;35.78;;;9.90;99.90;;;;;;4976652;28;20253;-77
2021/11/24 04:53:01;;;;;;;126.45;39.42;;;10.00;99.90;;;;;;4976439;28;20174;-80
2021/11/24 04:55:27;;;;;;;103.63;37.17;;;10.20;99.90;;;;;;4976361;28;20273;-80
2021/11/24 04:57:53;;;;;;;90.63;34.50;;;10.20;99.90;;;;;;4976448;28;20202;-82
2021/11/24 05:00:23;;;;;;;101.88;36.95;;;10.10;99.90;;;;;;4976277;28;20174;-83
2021/11/24 05:02:51;;;;;;;98.95;34.90;;;10.10;99.90;;;;;;4976068;28;20220;-86
2021/11/24 05:05:23;;;;;;;94.32;35.58;;;10.20;99.90;;;;;;4976882;28;20197;-82
2021/11/24 05:07:48;;;;;;;98.40;35.30;;;10.20;99.90;;;;;;4977627;28;20296;-79
2021/11/24 05:10:14;;;;;;;104.70;36.22;;;10.30;99.90;;;;;;4976371;28;20244;-82
2021/11/24 05:12:40;;;;;;;95.80;33.83;;;10.40;99.90;;;;;;4958998;28;20212;-81
2021/11/24 05:15:10;;;;;;;84.03;34.25;;;10.50;99.90;;;;;;4975628;28;20237;-81
2021/11/24 05:17:38;;;;;;;84.55;31.55;;;10.50;99.90;;;;;;4975871;28;20188;-83
2021/11/24 05:20:05;;;;;;;70.63;29.48;;;10.30;99.90;;;;;;4975786;28;20245;-82
2021/11/24 05:22:31;;;;;;;71.45;31.25;;;10.00;99.90;;;;;;4975759;28;20182;-81
2021/11/24 05:24:57;;;;;;;72.32;29.65;;;10.00;99.90;;;;;;4976074;28;20651;-82
2021/11/24 05:27:23;;;;;;;71.57;30.40;;;10.00;99.90;;;;;;4975845;28;20222;-82
2021/11/24 05:29:49;;;;;;;75.32;29.77;;;10.00;99.90;;;;;;4976054;28;20177;-83
2021/11/24 05:32:14;;;;;;;75.32;28.58;;;10.10;99.90;;;;;;4975885;28;20260;-81
2021/11/24 05:34:40;;;;;;;73.15;29.92;;;10.10;99.90;;;;;;4975750;28;20317;-85
2021/11/24 05:37:07;;;;;;;74.07;28.35;;;10.30;99.90;;;;;;4975011;28;20213;-79
2021/11/24 05:39:35;;;;;;;77.40;29.13;;;10.30;99.90;;;;;;4975965;28;20166;-81
2021/11/24 05:42:02;;;;;;;76.32;27.98;;;10.30;99.90;;;;;;4975367;28;20198;-78
2021/11/24 05:44:31;;;;;;;79.90;30.00;;;10.40;99.90;;;;;;4975668;28;20257;-83
2021/11/24 05:47:01;;;;;;;76.60;29.20;;;10.60;99.90;;;;;;4975603;28;20276;-79
2021/11/24 05:49:28;;;;;;;79.82;29.38;;;10.70;99.90;;;;;;4958269;28;20272;-85
2021/11/24 05:51:55;;;;;;;86.18;30.67;;;10.60;99.90;;;;;;4975684;28;20170;-81
2021/11/24 05:54:22;;;;;;;70.95;28.60;;;10.70;99.90;;;;;;4975798;28;20173;-86
2021/11/24 05:56:48;;;;;;;67.93;27.80;;;10.60;99.90;;;;;;4975650;28;20204;-82
2021/11/24 05:59:18;;;;;;;78.05;29.52;;;10.60;99.90;;;;;;4975425;28;20174;-87
2021/11/24 06:01:44;;;;;;;68.78;27.95;;;10.60;99.90;;;;;;4975538;28;20184;-80
2021/11/24 06:04:10;;;;;;;71.18;26.45;;;10.60;99.90;;;;;;4975412;28;20221;-79
2021/11/24 06:06:36;;;;;;;78.28;29.25;;;10.60;99.90;;;;;;4975008;28;20197;-83
2021/11/24 06:09:03;;;;;;;74.78;27.83;;;10.50;99.90;;;;;;4957895;28;20297;-84
2021/11/24 06:11:29;;;;;;;75.35;29.05;;;10.30;99.90;;;;;;4975476;28;20165;-80
2021/11/24 06:13:55;;;;;;;72.82;27.75;;;10.40;99.90;;;;;;4958476;28;20182;-85
2021/11/24 06:16:23;;;;;;;82.53;29.33;;;10.60;99.90;;;;;;4975029;28;20232;-81
2021/11/24 06:18:50;;;;;;;64.38;26.48;;;10.50;99.90;;;;;;4957249;28;20170;-84
2021/11/24 06:21:22;;;;;;;73.90;28.17;;;10.40;99.90;;;;;;4974643;28;20174;-83
2021/11/24 06:23:49;;;;;;;69.57;27.42;;;10.40;99.90;;;;;;4957354;28;20185;-85
2021/11/24 06:26:15;;;;;;;66.60;27.23;;;10.10;99.90;;;;;;4974910;28;20193;-86
2021/11/24 06:28:43;;;;;;;78.13;27.00;;;10.10;99.90;;;;;;4974912;28;20213;-85
2021/11/24 06:31:09;;;;;;;68.25;28.27;;;10.30;99.90;;;;;;4974903;28;20174;-84
2021/11/24 06:33:34;;;;;;;71.32;26.85;;;10.20;99.90;;;;;;4974930;28;20170;-83
2021/11/24 06:36:00;;;;;;;79.43;29.50;;;10.10;99.90;;;;;;4974386;28;20190;-80
2021/11/24 06:38:25;;;;;;;76.90;26.98;;;10.10;99.90;;;;;;4974698;28;20181;-86
2021/11/24 06:40:51;;;;;;;69.55;26.38;;;10.00;99.90;;;;;;4975028;28;20257;-81
2021/11/24 06:43:17;;;;;;;73.00;27.20;;;10.00;99.90;;;;;;4977165;28;20174;-85
2021/11/24 06:45:44;;;;;;;68.78;26.33;;;10.10;99.90;;;;;;4975471;28;20190;-82
2021/11/24 06:48:10;;;;;;;68.95;26.15;;;9.90;99.90;;;;;;4940447;28;20328;-82
2021/11/24 06:50:36;;;;;;;73.80;27.17;;;9.80;99.90;;;;;;4974753;28;20193;-82
2021/11/24 06:53:02;;;;;;;75.07;27.77;;;9.80;99.90;;;;;;4975990;28;20175;-83
2021/11/24 06:55:28;;;;;;;63.70;25.98;;;9.90;99.90;;;;;;4974760;28;20332;-86
2021/11/24 06:57:53;;;;;;;77.82;28.27;;;9.90;99.90;;;;;;4956712;28;20194;-82
2021/11/24 07:00:19;;;;;;;89.60;26.67;;;9.90;99.90;;;;;;4956940;28;20268;-80
2021/11/24 07:02:45;;;;;;;77.43;26.55;;;9.90;99.90;;;;;;4974386;28;20170;-82
2021/11/24 07:05:12;;;;;;;71.65;25.42;;;9.70;99.90;;;;;;4973693;28;20182;-82
2021/11/24 07:07:38;;;;;;;68.45;25.48;;;9.70;99.90;;;;;;4974375;28;20205;-81
2021/11/24 07:10:04;;;;;;;75.80;26.73;;;9.80;99.90;;;;;;4956837;28;20284;-80
2021/11/24 07:12:30;;;;;;;74.75;27.15;;;9.70;99.90;;;;;;4975932;28;20181;-77
2021/11/24 07:14:56;;;;;;;76.47;26.08;;;9.70;99.90;;;;;;4973942;28;20249;-82
2021/11/24 07:17:23;;;;;;;74.82;25.05;;;9.50;99.90;;;;;;4973412;28;20173;-84
2021/11/24 07:19:49;;;;;;;64.57;24.67;;;9.50;99.90;;;;;;4972231;28;20508;-81
2021/11/24 07:22:15;;;;;;;75.25;26.65;;;9.50;99.90;;;;;;4973497;28;20190;-85
2021/11/24 07:24:40;;;;;;;69.63;25.50;;;9.60;99.90;;;;;;4974129;28;20715;-85
2021/11/24 07:27:06;;;;;;;64.72;24.20;;;9.70;99.90;;;;;;4974072;28;20197;-86
2021/11/24 07:29:32;;;;;;;68.30;25.33;;;9.50;99.90;;;;;;4957665;28;20257;-83
2021/11/24 07:31:58;;;;;;;72.00;26.20;;;9.50;99.90;;;;;;4974950;28;20209;-90
2021/11/24 07:34:24;;;;;;;70.90;26.27;;;9.40;99.90;;;;;;4974442;28;20166;-84
2021/11/24 07:36:49;;;;;;;73.40;26.35;;;9.30;99.90;;;;;;4975002;28;20718;-83
2021/11/24 07:39:15;;;;;;;73.30;26.98;;;9.40;99.90;;;;;;4974760;28;20189;-84
2021/11/24 07:41:41;;;;;;;67.05;25.35;;;9.30;99.90;;;;;;4974995;28;20252;-85
2021/11/24 07:44:08;;;;;;;69.35;25.23;;;9.40;99.90;;;;;;4981610;28;20220;-78
2021/11/24 07:46:34;;;;;;;67.22;25.13;;;9.30;99.90;;;;;;4984318;28;20663;-78
2021/11/24 07:49:01;;;;;;;73.80;26.63;;;9.30;99.90;;;;;;4984411;28;20209;-79
2021/11/24 07:51:27;;;;;;;64.25;27.27;;;9.30;99.90;;;;;;4965957;28;20197;-79
2021/11/24 07:53:53;;;;;;;68.20;26.95;;;9.20;99.90;;;;;;4984460;28;20173;-77
2021/11/24 07:56:18;;;;;;;76.45;26.90;;;9.10;99.90;;;;;;4983358;28;20197;-78
2021/11/24 07:58:44;;;;;;;67.00;27.75;;;9.20;99.90;;;;;;4967606;28;20206;-79
2021/11/24 08:01:11;;;;;;;60.55;25.73;;;9.20;99.90;;;;;;4970286;28;20220;-79
2021/11/24 08:03:37;;;;;;;58.33;24.33;;;9.30;99.90;;;;;;4988029;28;20181;-79
2021/11/24 08:06:03;;;;;;;59.63;25.60;;;9.20;99.90;;;;;;4988200;28;20567;-77
2021/11/24 08:08:28;;;;;;;62.42;25.10;;;9.20;99.90;;;;;;4983001;28;20218;-78
2021/11/24 08:10:54;;;;;;;69.80;26.20;;;9.20;99.90;;;;;;4977485;28;20178;-81
2021/11/24 08:13:21;;;;;;;60.58;23.92;;;9.40;99.90;;;;;;4977927;28;20185;-82
2021/11/24 08:15:47;;;;;;;61.45;25.27;;;9.20;99.90;;;;;;4961129;28;20190;-80
2021/11/24 08:18:14;;;;;;;67.03;25.55;;;9.40;99.90;;;;;;4971713;28;20189;-75
2021/11/24 08:20:39;;;;;;;67.30;25.38;;;9.60;99.90;;;;;;4975346;28;20170;-81
2021/11/24 08:23:05;;;;;;;68.55;24.38;;;9.60;99.90;;;;;;4976319;28;20548;-79
2021/11/24 08:25:31;;;;;;;75.85;25.90;;;9.50;99.90;;;;;;4974724;28;20206;-86
2021/11/24 08:27:57;;;;;;;62.40;24.98;;;9.50;99.90;;;;;;4976227;28;20209;-86
2021/11/24 08:30:24;;;;;;;63.20;25.25;;;9.50;99.90;;;;;;4977361;28;20174;-83
2021/11/24 08:32:50;;;;;;;54.15;23.08;;;9.40;99.90;;;;;;4978396;28;20236;-82
2021/11/24 08:35:18;;;;;;;63.85;25.27;;;9.50;99.90;;;;;;4977552;28;20221;-82
2021/11/24 08:37:45;;;;;;;58.42;24.65;;;9.50;99.90;;;;;;4977285;28;20192;-81
2021/11/24 08:40:11;;;;;;;59.92;24.05;;;9.50;99.90;;;;;;4960016;28;20213;-88
2021/11/24 08:42:38;;;;;;;61.55;25.30;;;9.50;99.90;;;;;;4977158;28;20189;-79
2021/11/24 08:45:04;;;;;;;63.13;24.50;;;9.70;99.90;;;;;;4976599;28;20672;-87
2021/11/24 08:47:30;;;;;;;67.32;22.63;;;9.70;99.90;;;;;;4983895;28;20257;-77
2021/11/24 08:49:55;;;;;;;65.50;22.58;;;9.60;99.90;;;;;;4979412;28;20237;-83
2021/11/24 08:52:22;;;;;;;58.45;23.38;;;9.70;99.90;;;;;;4976687;28;20162;-85
2021/11/24 08:54:47;;;;;;;60.67;23.30;;;10.00;99.90;;;;;;4977441;28;20162;-83
2021/11/24 08:57:13;;;;;;;51.45;23.23;;;9.90;99.90;;;;;;4976280;28;20656;-83
2021/11/24 08:59:39;;;;;;;64.00;23.67;;;10.00;99.90;;;;;;4977356;28;20570;-84
2021/11/24 09:02:06;;;;;;;59.67;23.65;;;10.10;99.90;;;;;;4976825;28;20194;-80
2021/11/24 09:04:33;;;;;;;56.55;22.95;;;10.20;99.90;;;;;;4976563;28;20177;-85
2021/11/24 09:06:58;;;;;;;54.95;22.10;;;10.30;99.90;;;;;;4975999;28;20198;-88
2021/11/24 09:09:25;;;;;;;55.88;24.55;;;10.60;99.90;;;;;;4976065;28;20181;-81
2021/11/24 09:11:50;;;;;;;54.97;23.48;;;10.60;99.90;;;;;;4975993;28;20504;-86
2021/11/24 09:14:16;;;;;;;50.83;21.25;;;10.50;99.90;;;;;;4977138;28;20185;-84
2021/11/24 09:16:42;;;;;;;65.80;24.10;;;10.40;99.90;;;;;;4980633;28;20192;-90
2021/11/24 09:19:07;;;;;;;59.20;22.60;;;10.60;99.90;;;;;;4968578;28;20189;-87
2021/11/24 09:21:34;;;;;;;43.38;21.23;;;10.90;99.90;;;;;;4987174;28;20660;-82
2021/11/24 09:24:04;;;;;;;61.42;23.58;;;10.90;99.90;;;;;;4967212;28;20166;-85
2021/11/24 09:26:44;;;;;;;57.67;23.92;;;10.90;99.90;;;;;;4977441;28;20549;-82
2021/11/24 09:29:11;;;;;;;62.03;25.15;;;11.10;99.90;;;;;;4976157;28;20640;-86
2021/11/24 09:31:38;;;;;;;53.67;24.52;;;11.40;99.90;;;;;;4958382;28;20224;-78
2021/11/24 09:34:04;;;;;;;58.03;23.73;;;11.40;99.90;;;;;;4976655;28;20234;-83
2021/11/24 09:36:29;;;;;;;57.05;23.92;;;11.30;99.90;;;;;;4972293;28;20225;-75
2021/11/24 09:38:58;;;;;;;60.95;24.55;;;11.50;99.90;;;;;;4961803;28;20192;-78
2021/11/24 09:41:26;;;;;;;67.07;26.67;;;11.60;99.90;;;;;;4981390;28;20225;-80
2021/11/24 09:43:55;;;;;;;61.40;25.20;;;11.70;99.90;;;;;;4980183;28;20265;-78
2021/11/24 09:46:24;;;;;;;62.35;24.88;;;11.40;99.90;;;;;;4966911;28;20376;-77
2021/11/24 09:48:51;;;;;;;60.97;24.40;;;11.40;99.90;;;;;;4961905;28;20198;-78
2021/11/24 09:51:19;;;;;;;58.38;26.50;;;11.30;99.90;;;;;;4961701;28;20174;-80
2021/11/24 09:53:45;;;;;;;62.17;24.88;;;11.10;99.90;;;;;;4958090;28;20195;-78
2021/11/24 09:56:12;;;;;;;55.95;25.23;;;10.90;99.90;;;;;;4956348;28;20191;-79
2021/11/24 09:58:37;;;;;;;58.75;24.52;;;11.10;99.90;;;;;;4974188;28;20177;-85
2021/11/24 10:01:03;;;;;;;67.13;26.48;;;11.20;99.90;;;;;;4976155;28;20169;-78
2021/11/24 10:03:31;;;;;;;71.28;26.77;;;11.30;99.90;;;;;;4982136;28;20174;-81
2021/11/24 10:05:56;;;;;;;67.07;26.52;;;11.10;99.90;;;;;;4985578;28;20244;-77
2021/11/24 10:08:23;;;;;;;64.57;26.92;;;11.00;99.90;;;;;;4982853;28;20221;-78
2021/11/24 10:10:48;;;;;;;69.50;25.83;;;11.00;99.90;;;;;;4977483;28;20162;-83
2021/11/24 10:13:14;;;;;;;75.78;27.08;;;11.20;99.90;;;;;;4976073;28;20180;-80
2021/11/24 10:15:49;;;;;;;74.22;26.17;;;11.20;99.90;;;;;;4956953;28;20197;-79
2021/11/24 10:18:16;;;;;;;60.95;26.55;;;11.30;99.90;;;;;;4975099;28;20593;-88
2021/11/24 10:20:53;;;;;;;67.47;26.50;;;11.20;99.90;;;;;;4976029;28;20169;-80
2021/11/24 10:23:33;;;;;;;71.72;26.25;;;11.50;99.90;;;;;;4977854;28;20185;-78
2021/11/24 10:26:38;;;;;;;62.30;26.52;;;11.50;99.90;;;;;;4977525;28;20253;-81
2021/11/24 10:29:14;;;;;;;63.80;26.30;;;11.40;99.90;;;;;;4956347;28;20221;-82
2021/11/24 10:32:02;;;;;;;52.13;25.23;;;11.30;99.90;;;;;;4976602;28;20252;-80
2021/11/24 10:34:37;;;;;;;64.40;26.63;;;11.60;99.90;;;;;;4976263;28;20174;-83
2021/11/24 10:37:16;;;;;;;76.53;28.17;;;11.50;99.90;;;;;;4976101;28;20181;-81
2021/11/24 10:39:51;;;;;;;77.47;28.52;;;11.30;99.90;;;;;;4960312;28;20651;-80
2021/11/24 10:42:22;;;;;;;74.43;26.73;;;11.00;99.90;;;;;;4978241;28;20196;-80
2021/11/24 10:44:51;;;;;;;72.97;29.23;;;11.20;99.90;;;;;;4962063;28;20180;-86
2021/11/24 10:47:18;;;;;;;60.90;26.05;;;11.20;99.90;;;;;;4975296;28;20224;-80
2021/11/24 10:49:50;;;;;;;74.65;29.15;;;11.20;99.90;;;;;;4973649;28;20208;-80
2021/11/24 10:52:29;;;;;;;70.45;26.50;;;11.20;99.90;;;;;;4972853;28;20169;-82
2021/11/24 10:55:07;;;;;;;70.38;28.23;;;10.60;99.90;;;;;;4973360;28;20268;-82
2021/11/24 10:57:37;;;;;;;63.70;26.60;;;10.60;99.90;;;;;;4973788;28;20170;-80
2021/11/24 11:00:17;;;;;;;68.13;27.85;;;10.60;99.90;;;;;;4973656;28;20274;-79
2021/11/24 11:02:47;;;;;;;58.90;26.70;;;10.50;99.90;;;;;;4973185;28;20173;-80
2021/11/24 11:05:18;;;;;;;72.68;28.83;;;10.50;99.90;;;;;;4972892;28;20205;-81
2021/11/24 11:07:53;;;;;;;63.75;27.70;;;10.80;99.90;;;;;;4955505;28;20237;-82
2021/11/24 11:10:45;;;;;;;64.28;26.88;;;10.90;99.90;;;;;;4973237;28;20161;-81
2021/11/24 11:13:12;;;;;;;52.90;24.90;;;10.60;99.90;;;;;;4973111;28;20176;-80
2021/11/24 11:15:37;;;;;;;73.95;29.58;;;10.70;99.90;;;;;;4974281;28;20194;-79
2021/11/24 11:18:08;;;;;;;74.72;28.83;;;10.90;99.90;;;;;;4973375;28;20185;-81
2021/11/24 11:21:09;;;;;;;62.22;27.17;;;11.00;99.90;;;;;;4972292;28;20535;-79
2021/11/24 11:23:39;;;;;;;63.58;24.27;;;11.00;99.90;;;;;;4955834;28;20744;-81
2021/11/24 11:26:08;;;;;;;61.05;26.20;;;11.10;99.90;;;;;;4972315;28;20668;-83
2021/11/24 11:28:37;;;;;;;63.30;27.85;;;10.90;99.90;;;;;;4955350;28;20217;-83
2021/11/24 11:31:08;;;;;;;57.33;25.75;;;10.70;99.90;;;;;;4972949;28;20517;-80
2021/11/24 11:33:36;;;;;;;63.40;25.25;;;10.60;99.90;;;;;;4972304;28;20181;-79
2021/11/24 11:36:07;;;;;;;54.92;25.33;;;10.70;99.90;;;;;;4976302;28;20190;-82
2021/11/24 11:38:35;;;;;;;60.65;26.80;;;10.60;99.90;;;;;;4958687;28;20543;-81
2021/11/24 11:41:03;;;;;;;62.72;24.98;;;10.70;99.90;;;;;;4976326;28;20170;-81
2021/11/24 11:43:30;;;;;;;68.57;25.80;;;10.70;99.90;;;;;;4976577;28;20173;-84
2021/11/24 11:45:56;;;;;;;62.38;24.08;;;10.80;99.90;;;;;;4976552;28;20186;-82
2021/11/24 11:48:30;;;;;;;63.00;25.55;;;10.80;99.90;;;;;;4976338;28;20231;-82
2021/11/24 11:51:03;;;;;;;59.17;25.80;;;10.70;99.90;;;;;;4976824;28;20536;-80
2021/11/24 11:53:42;;;;;;;63.67;25.67;;;10.70;99.90;;;;;;4976553;28;20170;-79
2021/11/24 11:56:16;;;;;;;62.72;27.13;;;10.70;99.90;;;;;;4976052;28;20202;-81
2021/11/24 11:59:15;;;;;;;64.28;24.08;;;10.70;99.90;;;;;;4976434;28;20175;-80
2021/11/24 12:01:40;;;;;;;56.03;24.27;;;10.60;99.90;;;;;;4976211;28;20644;-80
2021/11/24 12:04:06;;;;;;;55.63;23.20;;;10.60;99.90;;;;;;4976378;28;20177;-80
2021/11/24 12:06:35;;;;;;;57.63;24.73;;;10.80;99.90;;;;;;4976092;28;20193;-82
2021/11/24 12:09:06;;;;;;;58.20;25.25;;;10.80;99.90;;;;;;4975721;28;20314;-79
2021/11/24 12:12:09;;;;;;;52.83;23.40;;;10.90;99.90;;;;;;4976234;28;20173;-80
2021/11/24 12:14:47;;;;;;;55.58;21.95;;;10.90;99.90;;;;;;4976050;28;20256;-78
2021/11/24 12:17:35;;;;;;;55.00;22.80;;;10.60;99.90;;;;;;4958512;28;20591;-80
2021/11/24 12:20:14;;;;;;;56.47;23.17;;;11.00;99.90;;;;;;4958621;28;20178;-80
2021/11/24 12:27:54;;;;;;;53.65;24.10;;;11.20;99.90;;;;;;4977273;28;20205;-82
2021/11/24 12:33:07;;;;;;;43.83;21.67;;;10.70;99.90;;;;;;4976314;28;20170;-81
2021/11/24 12:35:35;;;;;;;49.67;22.25;;;10.80;99.90;;;;;;4958199;28;20204;-82
2021/11/24 12:38:02;;;;;;;50.90;22.90;;;10.60;99.90;;;;;;4976985;28;20253;-82